createdAt,value
2023-03-31T00:01:16.022Z,101918.06
2023-03-31T00:06:19.285Z,101913.63
2023-03-31T00:11:22.920Z,101940.06
2023-03-31T00:16:25.915Z,101941.44
2023-03-31T00:21:35.151Z,101948.69
2023-03-31T00:26:38.348Z,101971.28
2023-03-31T00:31:41.344Z,101957.16
2023-03-31T00:36:48.035Z,101959.16
2023-03-31T00:41:51.134Z,101948.19
2023-03-31T00:46:53.951Z,101976.06
2023-03-31T00:52:02.795Z,101984.78
2023-03-31T00:57:07.187Z,101974.03
2023-03-31T01:02:10.253Z,102000.31
2023-03-31T01:07:26.035Z,101971.75
2023-03-31T01:12:29.172Z,101980.22
2023-03-31T01:17:32.277Z,102014.41
2023-03-31T01:23:05.813Z,102004.56
2023-03-31T01:28:29.985Z,102024.34
2023-03-31T01:33:33.443Z,102017.00
2023-03-31T01:38:54.540Z,102031.38
2023-03-31T01:44:15.914Z,102037.13
2023-03-31T01:49:21.526Z,102028.56
2023-03-31T01:54:34.766Z,102051.91
2023-03-31T01:59:59.854Z,102053.50
2023-03-31T02:05:27.191Z,102058.19
2023-03-31T02:10:31.347Z,102057.66
2023-03-31T02:15:36.803Z,102059.63
2023-03-31T02:20:43.145Z,102064.38
2023-03-31T02:25:53.971Z,102066.13
2023-03-31T02:31:23.087Z,102073.56
2023-03-31T02:36:26.088Z,102080.47
2023-03-31T02:41:28.896Z,102084.75
2023-03-31T02:46:33.028Z,102094.34
2023-03-31T02:51:55.531Z,102083.66
2023-03-31T02:57:43.637Z,102098.88
2023-03-31T03:03:05.004Z,102105.56
2023-03-31T03:08:28.143Z,102113.47
2023-03-31T03:13:52.218Z,102110.56
2023-03-31T03:18:59.333Z,102121.03
2023-03-31T03:24:02.165Z,102110.59
2023-03-31T03:29:04.936Z,102122.53
2023-03-31T03:34:07.878Z,102119.53
2023-03-31T03:39:10.694Z,102123.78
2023-03-31T03:44:13.555Z,102130.91
2023-03-31T03:49:16.409Z,102138.41
2023-03-31T03:54:19.260Z,102149.06
2023-03-31T03:59:22.095Z,102140.16
2023-03-31T04:04:24.997Z,102144.25
2023-03-31T04:09:28.024Z,102150.13
2023-03-31T04:14:30.774Z,102165.22
2023-03-31T04:19:33.532Z,102162.59
2023-03-31T04:24:39.093Z,102178.06
2023-03-31T04:29:42.970Z,102177.69
2023-03-31T04:34:46.936Z,102194.44
2023-03-31T04:39:51.003Z,102181.28
2023-03-31T04:44:53.709Z,102171.06
2023-03-31T04:49:56.403Z,102177.59
2023-03-31T04:54:59.165Z,102191.00
2023-03-31T05:00:08.246Z,102186.00
2023-03-31T05:05:12.575Z,102168.88
2023-03-31T05:10:15.382Z,102182.44
2023-03-31T05:15:18.361Z,102191.78
2023-03-31T05:20:21.932Z,102201.13
2023-03-31T05:25:24.698Z,102162.69
2023-03-31T05:30:28.103Z,102189.44
2023-03-31T05:35:31.094Z,102205.00
2023-03-31T05:40:33.905Z,102209.75
2023-03-31T05:45:37.849Z,102216.31
2023-03-31T05:50:40.747Z,102213.22
2023-03-31T05:55:43.466Z,102217.44
2023-03-31T06:00:46.277Z,102229.88
2023-03-31T06:05:49.701Z,102222.06
2023-03-31T06:10:52.590Z,102221.06
2023-03-31T06:15:59.824Z,102216.41
2023-03-31T06:21:02.857Z,102234.00
2023-03-31T06:26:18.077Z,102222.19
2023-03-31T06:31:22.918Z,102225.25
2023-03-31T06:36:25.998Z,102225.88
2023-03-31T06:41:28.942Z,102235.41
2023-03-31T06:46:31.809Z,102231.91
2023-03-31T06:51:34.574Z,102228.38
2023-03-31T06:56:37.436Z,102248.69
2023-03-31T07:01:42.938Z,102248.00
2023-03-31T07:06:45.940Z,102245.31
2023-03-31T07:11:48.738Z,102268.78
2023-03-31T07:16:51.588Z,102262.38
2023-03-31T07:21:54.660Z,102260.56
2023-03-31T07:26:57.335Z,102273.28
2023-03-31T07:32:00.154Z,102268.94
2023-03-31T07:37:02.983Z,102286.28
2023-03-31T07:42:05.793Z,102284.28
2023-03-31T07:47:08.621Z,102287.94
2023-03-31T07:52:11.677Z,102298.06
2023-03-31T07:57:18.040Z,102294.69
2023-03-31T08:02:20.954Z,102293.19
2023-03-31T08:07:24.083Z,102305.66
2023-03-31T08:12:26.929Z,102303.38
2023-03-31T08:17:29.670Z,102313.66
2023-03-31T08:22:32.482Z,102293.75
2023-03-31T08:27:36.875Z,102299.19
2023-03-31T08:32:39.754Z,102312.78
2023-03-31T08:37:42.916Z,102306.97
2023-03-31T08:42:50.562Z,102321.66
2023-03-31T08:47:57.876Z,102320.56
2023-03-31T08:53:19.996Z,102323.75
2023-03-31T08:58:31.899Z,102349.19
2023-03-31T09:04:02.207Z,102322.44
2023-03-31T09:09:11.669Z,102306.00
2023-03-31T09:14:17.490Z,102327.72
2023-03-31T09:19:39.364Z,102327.19
2023-03-31T09:24:48.256Z,102328.72
2023-03-31T09:29:59.106Z,102334.22
2023-03-31T09:35:18.366Z,102327.88
2023-03-31T09:40:23.549Z,102340.00
2023-03-31T09:45:26.451Z,102340.34
2023-03-31T09:50:31.215Z,102341.97
2023-03-31T09:55:44.122Z,102356.59
2023-03-31T10:01:07.336Z,102383.00
2023-03-31T10:06:11.392Z,102384.44
2023-03-31T10:11:14.569Z,102387.09
2023-03-31T10:16:29.439Z,102380.09
2023-03-31T10:21:38.054Z,102398.63
2023-03-31T10:26:41.420Z,102385.41
2023-03-31T10:31:44.315Z,102409.81
2023-03-31T10:36:49.253Z,102425.63
2023-03-31T10:41:53.098Z,102417.63
2023-03-31T10:46:56.191Z,102420.63
2023-03-31T10:52:01.378Z,102411.47
2023-03-31T10:57:06.579Z,102425.75
2023-03-31T11:02:36.628Z,102417.22
2023-03-31T11:08:01.389Z,102445.75
2023-03-31T11:13:41.559Z,102453.66
2023-03-31T11:18:51.612Z,102455.69
2023-03-31T11:24:33.237Z,102450.75
2023-03-31T11:29:47.441Z,102471.63
2023-03-31T11:35:14.714Z,102454.72
2023-03-31T11:40:32.647Z,102458.44
2023-03-31T11:45:39.388Z,102470.75
2023-03-31T11:50:44.286Z,102475.84
2023-03-31T11:55:49.431Z,102483.47
2023-03-31T12:01:11.220Z,102487.22
2023-03-31T12:06:19.895Z,102495.00
2023-03-31T12:11:29.192Z,102492.31
2023-03-31T12:16:41.547Z,102509.00
2023-03-31T12:21:49.635Z,102522.09
2023-03-31T12:27:15.326Z,102524.34
2023-03-31T12:32:21.830Z,102541.16
2023-03-31T12:38:04.140Z,102554.38
2023-03-31T12:43:24.788Z,102555.41
2023-03-31T12:48:44.525Z,102560.13
2023-03-31T12:54:08.077Z,102570.94
2023-03-31T12:59:34.000Z,102566.78
2023-03-31T13:04:37.820Z,102582.72
2023-03-31T13:09:43.093Z,102589.91
2023-03-31T13:14:48.755Z,102602.03
2023-03-31T13:19:52.074Z,102600.16
2023-03-31T13:24:54.952Z,102601.53
2023-03-31T13:29:58.045Z,102618.38
2023-03-31T13:35:07.341Z,102615.69
2023-03-31T13:40:19.218Z,102612.50
2023-03-31T13:45:57.536Z,102611.22
2023-03-31T13:51:21.008Z,102603.06
2023-03-31T13:56:58.472Z,102618.00
2023-03-31T14:02:37.494Z,102618.47
2023-03-31T14:08:15.079Z,102622.97
2023-03-31T14:13:25.764Z,102610.81
2023-03-31T14:18:34.639Z,102627.09
2023-03-31T14:24:01.796Z,102632.94
2023-03-31T14:29:20.034Z,102632.25
2023-03-31T14:34:54.086Z,102647.34
2023-03-31T14:39:58.501Z,102656.63
2023-03-31T14:45:05.451Z,102646.25
2023-03-31T14:50:18.351Z,102645.38
2023-03-31T14:55:26.603Z,102647.09
2023-03-31T15:00:33.609Z,102646.06
2023-03-31T15:05:38.545Z,102665.66
2023-03-31T15:10:44.596Z,102673.41
2023-03-31T15:15:47.539Z,102677.31
2023-03-31T15:20:51.092Z,102687.03
2023-03-31T15:26:08.529Z,102698.84
2023-03-31T15:31:11.889Z,102694.47
2023-03-31T15:36:15.279Z,102672.47
2023-03-31T15:41:18.140Z,102698.06
2023-03-31T15:46:26.497Z,102683.34
2023-03-31T15:51:37.588Z,102690.50
2023-03-31T15:56:45.777Z,102708.78
2023-03-31T16:01:50.403Z,102715.56
2023-03-31T16:07:07.925Z,102719.09
2023-03-31T16:12:36.599Z,102721.22
2023-03-31T16:17:49.389Z,102731.59
2023-03-31T16:22:54.684Z,102733.34
2023-03-31T16:28:01.728Z,102740.06
2023-03-31T16:33:07.788Z,102741.16
2023-03-31T16:38:12.766Z,102756.81
2023-03-31T16:43:20.056Z,102766.72
2023-03-31T16:48:24.535Z,102774.25
2023-03-31T16:53:29.338Z,102776.50
2023-03-31T16:58:32.267Z,102790.31
2023-03-31T17:03:37.144Z,102796.06
2023-03-31T17:08:40.248Z,102796.81
2023-03-31T17:13:44.062Z,102810.72
2023-03-31T17:18:46.874Z,102813.69
2023-03-31T17:23:50.142Z,102807.47
2023-03-31T17:28:53.018Z,102821.63
2023-03-31T17:33:57.394Z,102815.97
2023-03-31T17:39:00.676Z,102821.66
2023-03-31T17:44:05.002Z,102829.06
2023-03-31T17:49:08.677Z,102825.28
2023-03-31T17:54:11.877Z,102824.41
2023-03-31T17:59:14.594Z,102838.97
2023-03-31T18:04:17.662Z,102831.56
2023-03-31T18:09:20.891Z,102845.97
2023-03-31T18:14:23.613Z,102853.38
2023-03-31T18:19:26.255Z,102842.63
2023-03-31T18:24:29.173Z,102850.25
2023-03-31T18:29:32.167Z,102854.50
2023-03-31T18:34:37.069Z,102857.00
2023-03-31T18:39:39.772Z,102859.69
2023-03-31T18:44:42.541Z,102859.69
2023-03-31T18:49:45.246Z,102869.84
2023-03-31T18:54:48.109Z,102876.34
2023-03-31T18:59:50.866Z,102849.81
2023-03-31T19:04:53.841Z,102879.00
2023-03-31T19:09:56.720Z,102876.97
2023-03-31T19:14:59.475Z,102880.31
2023-03-31T19:20:02.315Z,102887.44
2023-03-31T19:25:06.430Z,102899.78
2023-03-31T19:30:17.728Z,102895.06
2023-03-31T19:35:20.616Z,102906.75
2023-03-31T19:40:23.634Z,102906.22
2023-03-31T19:45:26.479Z,102928.69
2023-03-31T19:50:29.206Z,102930.75
2023-03-31T19:55:32.251Z,102937.06
2023-03-31T20:00:34.955Z,102917.06
2023-03-31T20:05:38.118Z,102944.81
2023-03-31T20:10:41.936Z,102948.88
2023-03-31T20:15:44.857Z,102940.28
2023-03-31T20:20:48.199Z,102940.09
2023-03-31T20:25:52.024Z,102950.59
2023-03-31T20:30:56.605Z,102951.91
2023-03-31T20:36:11.185Z,102947.81
2023-03-31T20:41:14.962Z,102964.84
2023-03-31T20:46:17.692Z,102952.06
2023-03-31T20:51:22.389Z,102952.19
2023-03-31T20:56:27.898Z,102952.69
2023-03-31T21:01:33.614Z,102963.84
2023-03-31T21:06:44.983Z,102971.59
2023-03-31T21:11:47.807Z,102922.19
2023-03-31T21:16:50.639Z,102968.88
2023-03-31T21:21:53.410Z,102965.41
2023-03-31T21:26:56.332Z,102970.66
2023-03-31T21:32:00.028Z,102958.28
2023-03-31T21:37:02.628Z,102977.53
2023-03-31T21:42:05.349Z,102979.75
2023-03-31T21:47:08.197Z,102978.22
2023-03-31T21:52:10.899Z,102964.00
2023-03-31T21:57:14.042Z,102996.56
2023-03-31T22:02:16.906Z,102993.72
2023-03-31T22:07:19.625Z,103006.25
2023-03-31T22:12:22.433Z,102964.72
2023-03-31T22:17:26.314Z,103017.97
2023-03-31T22:22:29.123Z,103014.28
2023-03-31T22:27:31.981Z,103035.19
2023-03-31T22:32:34.719Z,103035.22
2023-03-31T22:37:37.572Z,103043.59
2023-03-31T22:42:40.254Z,103026.66
2023-03-31T22:47:43.004Z,103035.84
2023-03-31T22:52:46.384Z,103050.25
2023-03-31T22:57:49.160Z,103053.03
2023-03-31T23:02:52.174Z,103069.31
2023-03-31T23:07:54.944Z,103078.81
2023-03-31T23:12:58.036Z,103094.88
2023-03-31T23:18:00.860Z,103094.94
2023-03-31T23:23:04.056Z,103094.22
2023-03-31T23:28:07.488Z,103099.44
2023-03-31T23:33:10.301Z,103112.66
2023-03-31T23:38:12.957Z,103114.63
2023-03-31T23:43:16.767Z,103119.91
2023-03-31T23:48:19.632Z,103117.59
2023-03-31T23:53:22.492Z,103119.22
2023-03-31T23:58:26.588Z,103137.59
